createdAt,value
2019-04-16T00:00:06.436Z,76.97
2019-04-16T00:01:06.472Z,77.92
2019-04-16T00:02:06.504Z,78.59
2019-04-16T00:03:06.543Z,78.08
2019-04-16T00:04:06.582Z,77.79
2019-04-16T00:05:06.619Z,77.70
2019-04-16T00:06:06.658Z,78.45
2019-04-16T00:07:06.696Z,78.45
2019-04-16T00:08:19.379Z,78.27
2019-04-16T00:09:06.910Z,78.27
2019-04-16T00:10:06.810Z,77.79
2019-04-16T00:11:06.855Z,78.17
2019-04-16T00:12:06.894Z,78.64
2019-04-16T00:13:06.930Z,78.27
2019-04-16T00:14:06.970Z,78.55
2019-04-16T00:15:07.013Z,79.12
2019-04-16T00:16:07.041Z,79.41
2019-04-16T00:17:07.075Z,78.74
2019-04-16T00:18:07.114Z,78.74
2019-04-16T00:19:07.152Z,79.22
2019-04-16T00:20:07.279Z,80.74
2019-04-16T00:21:09.932Z,80.69
2019-04-16T00:22:11.495Z,80.41
2019-04-16T00:23:07.306Z,80.69
2019-04-16T00:24:07.342Z,80.60
2019-04-16T00:25:07.383Z,81.07
2019-04-16T00:26:07.432Z,81.45
2019-04-16T00:27:07.456Z,81.36
2019-04-16T00:28:07.493Z,81.74
2019-04-16T00:29:07.533Z,81.84
2019-04-16T00:30:07.570Z,81.55
2019-04-16T00:31:07.609Z,82.40
2019-04-16T00:32:09.396Z,82.03
2019-04-16T00:33:10.541Z,82.40
2019-04-16T00:34:07.723Z,82.69
2019-04-16T00:35:07.767Z,82.50
2019-04-16T00:36:07.798Z,82.59
2019-04-16T00:37:07.837Z,82.97
2019-04-16T00:38:07.874Z,83.26
2019-04-16T00:39:07.911Z,83.03
2019-04-16T00:40:07.958Z,83.36
2019-04-16T00:41:07.988Z,83.07
2019-04-16T00:42:08.026Z,82.50
2019-04-16T00:43:08.064Z,82.88
2019-04-16T00:44:08.102Z,82.55
2019-04-16T00:45:08.143Z,83.03
2019-04-16T00:46:11.401Z,83.59
2019-04-16T00:47:08.215Z,83.69
2019-04-16T00:48:08.258Z,83.69
2019-04-16T00:49:08.294Z,83.69
2019-04-16T00:50:08.330Z,84.17
2019-04-16T00:51:08.366Z,84.64
2019-04-16T00:52:08.405Z,84.55
2019-04-16T00:53:09.051Z,84.74
2019-04-16T00:54:10.352Z,84.45
2019-04-16T00:55:08.516Z,84.26
2019-04-16T00:56:08.560Z,84.74
2019-04-16T00:57:08.593Z,85.21
2019-04-16T00:58:08.629Z,85.49
2019-04-16T00:59:08.670Z,85.11
2019-04-16T01:00:08.704Z,85.21
2019-04-16T01:01:08.741Z,84.83
2019-04-16T01:02:08.846Z,85.11
2019-04-16T01:03:09.030Z,85.11
2019-04-16T01:04:09.132Z,86.63
2019-04-16T01:05:09.079Z,86.63
2019-04-16T01:06:08.972Z,86.82
2019-04-16T01:07:08.976Z,87.30
2019-04-16T01:08:09.005Z,86.63
2019-04-16T01:09:09.043Z,86.63
2019-04-16T01:10:09.175Z,86.35
2019-04-16T01:11:09.126Z,86.54
2019-04-16T01:12:09.249Z,86.44
2019-04-16T01:13:09.193Z,86.59
2019-04-16T01:14:09.231Z,86.68
2019-04-16T01:15:09.269Z,87.63
2019-04-16T01:16:09.306Z,87.82
2019-04-16T01:17:09.343Z,87.82
2019-04-16T01:18:09.381Z,87.73
2019-04-16T01:19:10.838Z,88.10
2019-04-16T01:20:12.647Z,87.82
2019-04-16T01:21:13.785Z,87.82
2019-04-16T01:22:09.531Z,88.96
2019-04-16T01:23:09.760Z,90.00
2019-04-16T01:24:09.781Z,89.81
2019-04-16T01:25:09.794Z,89.91
2019-04-16T01:26:09.680Z,90.10
2019-04-16T01:27:09.913Z,90.38
2019-04-16T01:28:10.009Z,90.19
2019-04-16T01:29:09.792Z,90.76
2019-04-16T01:30:09.840Z,91.24
2019-04-16T01:31:10.041Z,91.19
2019-04-16T01:32:11.697Z,91.66
2019-04-16T01:33:14.430Z,91.66
2019-04-16T01:34:09.989Z,91.66
2019-04-16T01:35:10.279Z,91.85
2019-04-16T01:36:10.225Z,92.04
2019-04-16T01:37:10.224Z,92.04
2019-04-16T01:38:10.441Z,91.95
2019-04-16T01:39:17.394Z,92.61
2019-04-16T01:40:10.203Z,92.23
2019-04-16T01:41:10.274Z,92.90
2019-04-16T01:42:10.276Z,93.18
2019-04-16T01:43:10.341Z,93.08
2019-04-16T01:44:10.430Z,92.99
2019-04-16T01:45:10.396Z,92.90
2019-04-16T01:46:10.435Z,92.90
2019-04-16T01:47:10.467Z,93.27
2019-04-16T01:48:10.651Z,92.90
2019-04-16T01:49:11.487Z,93.46
2019-04-16T01:50:13.916Z,93.27
2019-04-16T01:51:12.572Z,93.08
2019-04-16T01:52:10.648Z,93.84
2019-04-16T01:53:10.685Z,93.65
2019-04-16T01:54:10.721Z,93.08
2019-04-16T01:55:10.764Z,94.13
2019-04-16T01:56:11.019Z,93.65
2019-04-16T01:57:11.079Z,94.13
2019-04-16T01:58:11.060Z,94.18
2019-04-16T01:59:10.905Z,93.89
2019-04-16T02:00:10.945Z,94.27
2019-04-16T02:01:11.457Z,94.27
2019-04-16T02:02:14.778Z,94.27
2019-04-16T02:03:11.055Z,95.03
2019-04-16T02:04:11.091Z,94.65
2019-04-16T02:05:11.132Z,94.65
2019-04-16T02:06:11.165Z,94.93
2019-04-16T02:07:11.204Z,94.65
2019-04-16T02:08:11.240Z,95.12
2019-04-16T02:09:21.957Z,95.12
2019-04-16T02:10:11.313Z,95.22
2019-04-16T02:11:11.456Z,94.84
2019-04-16T02:12:13.506Z,95.22
2019-04-16T02:13:14.582Z,95.22
2019-04-16T02:14:11.471Z,95.31
2019-04-16T02:15:11.503Z,94.74
2019-04-16T02:16:11.537Z,95.22
2019-04-16T02:17:11.572Z,95.50
2019-04-16T02:18:11.610Z,95.50
2019-04-16T02:19:11.647Z,95.41
2019-04-16T02:20:11.683Z,95.69
2019-04-16T02:21:11.720Z,95.60
2019-04-16T02:22:13.684Z,95.41
2019-04-16T02:23:13.569Z,95.69
2019-04-16T02:24:11.830Z,95.88
2019-04-16T02:25:11.866Z,95.98
2019-04-16T02:26:11.904Z,95.98
2019-04-16T02:27:11.939Z,95.60
2019-04-16T02:28:11.981Z,95.41
2019-04-16T02:29:12.014Z,95.31
2019-04-16T02:30:12.052Z,95.50
2019-04-16T02:31:15.662Z,95.98
2019-04-16T02:32:12.126Z,95.69
2019-04-16T02:33:12.163Z,95.88
2019-04-16T02:34:12.198Z,95.50
2019-04-16T02:35:12.233Z,95.98
2019-04-16T02:36:12.277Z,96.45
2019-04-16T02:37:12.309Z,95.98
2019-04-16T02:38:13.838Z,96.36
2019-04-16T02:39:12.381Z,96.17
2019-04-16T02:40:16.602Z,96.36
2019-04-16T02:41:12.467Z,96.45
2019-04-16T02:42:12.494Z,96.26
2019-04-16T02:43:12.529Z,96.17
2019-04-16T02:44:15.911Z,96.55
2019-04-16T02:45:12.601Z,96.45
2019-04-16T02:46:12.639Z,96.45
2019-04-16T02:47:12.675Z,96.36
2019-04-16T02:48:16.741Z,96.07
2019-04-16T02:49:12.750Z,96.40
2019-04-16T02:50:12.787Z,95.88
2019-04-16T02:51:12.833Z,95.98
2019-04-16T02:52:16.623Z,96.36
2019-04-16T02:53:12.897Z,96.07
2019-04-16T02:54:12.933Z,96.50
2019-04-16T02:55:12.972Z,96.36
2019-04-16T02:56:17.765Z,96.59
2019-04-16T02:57:13.049Z,96.59
2019-04-16T02:58:13.082Z,96.59
2019-04-16T02:59:13.708Z,96.69
2019-04-16T03:00:17.575Z,96.78
2019-04-16T03:01:13.187Z,96.78
2019-04-16T03:02:13.225Z,96.78
2019-04-16T03:03:13.258Z,96.69
2019-04-16T03:04:13.299Z,96.50
2019-04-16T03:05:13.334Z,96.88
2019-04-16T03:06:13.368Z,96.31
2019-04-16T03:07:13.405Z,96.88
2019-04-16T03:08:13.442Z,96.78
2019-04-16T03:09:13.478Z,96.78
2019-04-16T03:10:14.027Z,96.78
2019-04-16T03:11:13.747Z,96.69
2019-04-16T03:12:13.586Z,97.44
2019-04-16T03:13:13.664Z,96.78
2019-04-16T03:14:13.662Z,96.88
2019-04-16T03:15:13.696Z,96.69
2019-04-16T03:16:13.733Z,97.35
2019-04-16T03:17:13.770Z,97.25
2019-04-16T03:18:14.875Z,96.78
2019-04-16T03:19:18.845Z,96.59
2019-04-16T03:20:13.881Z,96.69
2019-04-16T03:21:13.913Z,97.35
2019-04-16T03:22:13.951Z,97.35
2019-04-16T03:23:13.986Z,97.16
2019-04-16T03:24:14.024Z,97.06
2019-04-16T03:25:14.650Z,97.16
2019-04-16T03:26:17.482Z,97.06
2019-04-16T03:27:14.284Z,96.78
2019-04-16T03:28:14.175Z,97.16
2019-04-16T03:29:14.207Z,96.78
2019-04-16T03:30:14.289Z,96.97
2019-04-16T03:31:20.317Z,96.88
2019-04-16T03:32:15.580Z,97.35
2019-04-16T03:33:15.766Z,96.92
2019-04-16T03:34:14.388Z,96.73
2019-04-16T03:35:14.421Z,96.92
2019-04-16T03:36:14.461Z,97.11
2019-04-16T03:37:14.497Z,97.20
2019-04-16T03:38:14.532Z,96.92
2019-04-16T03:39:14.567Z,96.83
2019-04-16T03:40:18.049Z,96.83
2019-04-16T03:41:14.688Z,97.11
2019-04-16T03:42:14.684Z,97.20
2019-04-16T03:43:14.711Z,96.92
2019-04-16T03:44:14.748Z,96.92
2019-04-16T03:45:14.784Z,97.30
2019-04-16T03:46:14.820Z,97.02
2019-04-16T03:47:15.720Z,97.58
2019-04-16T03:48:14.896Z,96.92
2019-04-16T03:49:14.930Z,97.11
2019-04-16T03:50:14.966Z,97.39
2019-04-16T03:51:15.013Z,96.73
2019-04-16T03:52:15.040Z,96.92
2019-04-16T03:53:17.579Z,96.83
2019-04-16T03:54:15.113Z,96.64
2019-04-16T03:55:15.149Z,96.83
2019-04-16T03:56:15.186Z,97.02
2019-04-16T03:57:15.251Z,96.92
2019-04-16T03:58:15.317Z,97.30
2019-04-16T03:59:15.331Z,97.30
2019-04-16T04:00:15.367Z,96.92
2019-04-16T04:01:15.571Z,97.39
2019-04-16T04:02:21.272Z,97.39
2019-04-16T04:03:15.435Z,96.73
2019-04-16T04:04:15.490Z,97.58
2019-04-16T04:05:15.599Z,97.39
2019-04-16T04:06:15.669Z,97.20
2019-04-16T04:07:15.585Z,97.39
2019-04-16T04:08:17.379Z,97.58
2019-04-16T04:09:18.579Z,97.39
2019-04-16T04:10:29.117Z,97.39
2019-04-16T04:11:15.726Z,97.11
2019-04-16T04:12:15.860Z,97.49
2019-04-16T04:13:18.616Z,97.20
2019-04-16T04:14:15.831Z,97.20
2019-04-16T04:15:15.868Z,97.39
2019-04-16T04:16:15.907Z,97.68
2019-04-16T04:17:15.938Z,97.39
2019-04-16T04:18:15.975Z,97.30
2019-04-16T04:19:16.207Z,97.20
2019-04-16T04:20:18.341Z,97.39
2019-04-16T04:21:21.183Z,97.68
2019-04-16T04:22:16.120Z,97.49
2019-04-16T04:23:16.155Z,97.02
2019-04-16T04:24:16.190Z,97.49
2019-04-16T04:25:16.228Z,97.30
2019-04-16T04:26:16.270Z,97.49
2019-04-16T04:27:19.017Z,97.58
2019-04-16T04:28:19.655Z,97.77
2019-04-16T04:29:16.380Z,97.68
2019-04-16T04:30:16.415Z,97.30
2019-04-16T04:31:16.442Z,97.68
2019-04-16T04:32:16.486Z,97.49
2019-04-16T04:33:16.522Z,97.49
2019-04-16T04:34:17.419Z,97.30
2019-04-16T04:35:20.482Z,97.58
2019-04-16T04:36:18.897Z,97.39
2019-04-16T04:37:16.660Z,97.68
2019-04-16T04:38:16.697Z,97.68
2019-04-16T04:39:16.730Z,97.58
2019-04-16T04:40:17.507Z,97.02
2019-04-16T04:41:16.811Z,97.58
2019-04-16T04:42:18.903Z,97.49
2019-04-16T04:43:16.880Z,97.68
2019-04-16T04:44:16.915Z,97.68
2019-04-16T04:45:16.953Z,97.49
2019-04-16T04:46:16.983Z,97.77
2019-04-16T04:47:19.373Z,97.58
2019-04-16T04:48:17.055Z,97.68
2019-04-16T04:49:17.090Z,97.58
2019-04-16T04:50:17.127Z,97.30
2019-04-16T04:51:17.177Z,97.58
2019-04-16T04:52:17.207Z,97.68
2019-04-16T04:53:19.224Z,97.68
2019-04-16T04:54:21.604Z,97.30
2019-04-16T04:55:17.307Z,97.49
2019-04-16T04:56:19.320Z,97.39
2019-04-16T04:57:17.380Z,97.39
2019-04-16T04:58:17.415Z,97.58
2019-04-16T04:59:17.449Z,97.39
2019-04-16T05:00:17.486Z,97.30
2019-04-16T05:01:17.523Z,97.30
2019-04-16T05:02:17.559Z,97.39
2019-04-16T05:03:17.594Z,97.49
2019-04-16T05:04:20.344Z,97.58
2019-04-16T05:05:17.669Z,97.39
2019-04-16T05:06:17.704Z,97.49
2019-04-16T05:07:17.738Z,97.58
2019-04-16T05:08:17.774Z,97.39
2019-04-16T05:09:17.853Z,97.39
2019-04-16T05:10:17.903Z,98.34
2019-04-16T05:11:17.882Z,97.39
2019-04-16T05:12:21.329Z,97.39
2019-04-16T05:13:17.960Z,97.58
2019-04-16T05:14:17.999Z,97.30
2019-04-16T05:15:18.026Z,97.49
2019-04-16T05:16:18.060Z,97.49
2019-04-16T05:17:18.096Z,97.39
2019-04-16T05:18:18.142Z,98.15
2019-04-16T05:19:18.167Z,97.30
2019-04-16T05:20:18.207Z,97.49
2019-04-16T05:21:19.514Z,97.49
2019-04-16T05:22:21.809Z,97.20
2019-04-16T05:23:18.321Z,97.30
2019-04-16T05:24:18.355Z,97.49
2019-04-16T05:25:18.432Z,97.58
2019-04-16T05:26:18.586Z,97.58
2019-04-16T05:27:18.460Z,98.20
2019-04-16T05:28:18.494Z,97.30
2019-04-16T05:29:18.765Z,97.54
2019-04-16T05:30:21.105Z,97.35
2019-04-16T05:31:18.675Z,97.35
2019-04-16T05:32:18.647Z,97.35
2019-04-16T05:33:18.675Z,97.35
2019-04-16T05:34:18.802Z,97.54
2019-04-16T05:35:18.867Z,97.73
2019-04-16T05:36:21.141Z,97.73
2019-04-16T05:37:20.138Z,97.63
2019-04-16T05:38:20.512Z,97.35
2019-04-16T05:39:18.900Z,97.44
2019-04-16T05:40:18.928Z,97.63
2019-04-16T05:41:21.971Z,97.54
2019-04-16T05:42:19.001Z,97.54
2019-04-16T05:43:22.087Z,97.54
2019-04-16T05:44:19.072Z,97.82
2019-04-16T05:45:19.108Z,97.82
2019-04-16T05:46:19.148Z,97.63
2019-04-16T05:47:19.180Z,97.63
2019-04-16T05:48:21.661Z,97.40
2019-04-16T05:49:19.258Z,97.68
2019-04-16T05:50:19.300Z,97.49
2019-04-16T05:51:19.361Z,97.40
2019-04-16T05:52:19.363Z,97.78
2019-04-16T05:53:19.407Z,97.68
2019-04-16T05:54:19.452Z,97.40
2019-04-16T05:55:19.530Z,97.40
2019-04-16T05:56:22.668Z,97.30
2019-04-16T05:57:19.553Z,97.68
2019-04-16T05:58:19.580Z,97.21
2019-04-16T05:59:19.618Z,97.49
2019-04-16T06:00:19.655Z,97.30
2019-04-16T06:01:19.731Z,97.49
2019-04-16T06:02:20.038Z,97.21
2019-04-16T06:03:21.864Z,97.68
2019-04-16T06:04:24.292Z,97.02
2019-04-16T06:05:19.840Z,97.30
2019-04-16T06:06:19.873Z,97.26
2019-04-16T06:07:19.911Z,96.97
2019-04-16T06:08:19.947Z,96.50
2019-04-16T06:09:19.982Z,96.31
2019-04-16T06:10:20.020Z,96.03
2019-04-16T06:11:28.675Z,96.31
2019-04-16T06:12:20.306Z,96.41
2019-04-16T06:13:20.141Z,96.41
2019-04-16T06:14:20.179Z,95.74
2019-04-16T06:15:22.278Z,95.74
2019-04-16T06:16:24.155Z,95.74
2019-04-16T06:17:20.282Z,95.45
2019-04-16T06:18:20.316Z,95.45
2019-04-16T06:19:20.351Z,95.41
2019-04-16T06:20:21.413Z,95.31
2019-04-16T06:21:25.023Z,95.69
2019-04-16T06:22:20.634Z,95.60
2019-04-16T06:23:20.604Z,96.08
2019-04-16T06:24:20.535Z,96.26
2019-04-16T06:25:20.575Z,95.69
2019-04-16T06:26:20.608Z,95.88
2019-04-16T06:27:20.646Z,95.17
2019-04-16T06:28:20.683Z,95.46
2019-04-16T06:29:20.719Z,95.36
2019-04-16T06:30:21.098Z,95.27
2019-04-16T06:31:20.793Z,95.07
2019-04-16T06:32:20.831Z,94.70
2019-04-16T06:33:20.869Z,94.60
2019-04-16T06:34:23.644Z,94.03
2019-04-16T06:35:20.951Z,93.84
2019-04-16T06:36:20.980Z,93.84
2019-04-16T06:37:26.461Z,94.37
2019-04-16T06:38:21.058Z,93.51
2019-04-16T06:39:21.094Z,93.32
2019-04-16T06:40:21.130Z,93.23
2019-04-16T06:41:21.166Z,93.51
2019-04-16T06:42:22.972Z,93.13
2019-04-16T06:43:25.123Z,93.32
2019-04-16T06:44:21.281Z,93.70
2019-04-16T06:45:21.319Z,93.70
2019-04-16T06:46:21.356Z,93.51
2019-04-16T06:47:21.392Z,93.60
2019-04-16T06:48:21.441Z,93.41
2019-04-16T06:49:21.469Z,92.80
2019-04-16T06:50:31.206Z,92.51
2019-04-16T06:51:21.552Z,92.32
2019-04-16T06:52:21.584Z,92.13
2019-04-16T06:53:23.532Z,92.13
2019-04-16T06:54:21.675Z,92.04
2019-04-16T06:55:21.738Z,91.94
2019-04-16T06:56:21.732Z,91.38
2019-04-16T06:57:21.770Z,91.66
2019-04-16T06:58:21.824Z,91.38
2019-04-16T06:59:21.847Z,91.56
2019-04-16T07:00:21.899Z,90.90
2019-04-16T07:01:23.003Z,90.90
2019-04-16T07:02:24.394Z,90.90
2019-04-16T07:03:25.867Z,90.85
2019-04-16T07:04:22.037Z,90.56
2019-04-16T07:05:22.221Z,90.37
2019-04-16T07:06:22.182Z,90.75
2019-04-16T07:07:22.572Z,90.47
2019-04-16T07:08:22.192Z,90.28
2019-04-16T07:09:25.787Z,90.28
2019-04-16T07:10:22.367Z,89.71
2019-04-16T07:11:22.304Z,89.71
2019-04-16T07:12:22.413Z,89.42
2019-04-16T07:13:22.389Z,89.14
2019-04-16T07:14:22.582Z,89.61
2019-04-16T07:15:23.752Z,89.37
2019-04-16T07:16:22.556Z,89.28
2019-04-16T07:17:22.588Z,89.28
2019-04-16T07:18:22.626Z,88.80
2019-04-16T07:19:22.919Z,88.52
2019-04-16T07:20:22.650Z,88.42
2019-04-16T07:21:22.689Z,87.95
2019-04-16T07:22:22.729Z,88.23
2019-04-16T07:23:24.900Z,88.04
2019-04-16T07:24:23.602Z,87.66
2019-04-16T07:25:27.030Z,87.57
2019-04-16T07:26:22.892Z,87.80
2019-04-16T07:27:22.990Z,87.90
2019-04-16T07:28:25.842Z,87.52
2019-04-16T07:29:23.056Z,87.80
2019-04-16T07:30:23.045Z,87.13
2019-04-16T07:31:33.345Z,88.09
2019-04-16T07:32:23.112Z,87.32
2019-04-16T07:33:23.151Z,87.32
2019-04-16T07:34:23.245Z,87.52
2019-04-16T07:35:23.241Z,87.13
2019-04-16T07:36:24.227Z,86.38
2019-04-16T07:37:23.314Z,86.76
2019-04-16T07:38:23.367Z,86.61
2019-04-16T07:39:30.070Z,86.04
2019-04-16T07:40:23.426Z,85.28
2019-04-16T07:41:23.464Z,84.80
2019-04-16T07:42:26.208Z,84.80
2019-04-16T07:43:23.539Z,84.89
2019-04-16T07:44:23.595Z,84.99
2019-04-16T07:45:23.624Z,84.42
2019-04-16T07:46:23.657Z,84.52
2019-04-16T07:47:23.695Z,83.94
2019-04-16T07:48:23.736Z,84.33
2019-04-16T07:49:26.566Z,84.23
2019-04-16T07:50:23.817Z,84.23
2019-04-16T07:51:23.855Z,84.42
2019-04-16T07:52:23.935Z,84.42
2019-04-16T07:53:23.932Z,84.23
2019-04-16T07:54:23.983Z,84.04
2019-04-16T07:55:26.695Z,84.13
2019-04-16T07:56:24.052Z,83.85
2019-04-16T07:57:24.102Z,84.42
2019-04-16T07:58:24.131Z,84.08
2019-04-16T07:59:24.168Z,83.51
2019-04-16T08:00:24.209Z,82.93
2019-04-16T08:01:24.247Z,82.65
2019-04-16T08:02:24.292Z,82.93
2019-04-16T08:03:26.829Z,82.65
2019-04-16T08:04:29.045Z,82.56
2019-04-16T08:05:27.622Z,82.84
2019-04-16T08:06:24.456Z,82.46
2019-04-16T08:07:24.485Z,82.21
2019-04-16T08:08:25.474Z,81.26
2019-04-16T08:09:28.948Z,81.26
2019-04-16T08:10:24.617Z,80.98
2019-04-16T08:11:24.643Z,81.55
2019-04-16T08:12:30.555Z,81.07
2019-04-16T08:13:24.730Z,79.83
2019-04-16T08:14:24.765Z,79.27
2019-04-16T08:15:24.801Z,79.17
2019-04-16T08:16:24.847Z,78.59
2019-04-16T08:17:24.883Z,78.98
2019-04-16T08:18:24.924Z,78.50
2019-04-16T08:19:36.140Z,78.31
2019-04-16T08:20:25.006Z,78.41
2019-04-16T08:21:25.045Z,78.22
2019-04-16T08:22:25.105Z,78.59
2019-04-16T08:23:25.122Z,78.54
2019-04-16T08:24:25.572Z,78.54
2019-04-16T08:25:25.208Z,77.49
2019-04-16T08:26:25.246Z,77.40
2019-04-16T08:27:25.281Z,77.30
2019-04-16T08:28:25.322Z,76.25
2019-04-16T08:29:26.619Z,77.01
2019-04-16T08:30:25.406Z,77.01
2019-04-16T08:31:25.443Z,76.06
2019-04-16T08:32:26.040Z,75.78
2019-04-16T08:33:28.238Z,76.06
2019-04-16T08:34:25.563Z,76.86
2019-04-16T08:35:25.608Z,76.01
2019-04-16T08:36:25.644Z,75.91
2019-04-16T08:37:25.688Z,74.86
2019-04-16T08:38:26.131Z,74.48
2019-04-16T08:39:25.766Z,74.77
2019-04-16T08:40:25.815Z,74.67
2019-04-16T08:41:25.856Z,74.57
2019-04-16T08:42:29.330Z,73.43
2019-04-16T08:43:26.617Z,72.76
2019-04-16T08:44:25.967Z,71.91
2019-04-16T08:45:26.016Z,71.14
2019-04-16T08:46:28.213Z,69.33
2019-04-16T08:47:26.097Z,68.03
2019-04-16T08:48:26.135Z,68.70
2019-04-16T08:49:26.171Z,68.70
2019-04-16T08:50:27.002Z,66.78
2019-04-16T08:51:30.691Z,65.74
2019-04-16T08:52:26.298Z,65.58
2019-04-16T08:53:26.334Z,64.72
2019-04-16T08:54:26.384Z,64.72
2019-04-16T08:55:26.415Z,64.15
2019-04-16T08:56:26.466Z,64.43
2019-04-16T08:57:31.827Z,64.81
2019-04-16T08:58:26.538Z,64.25
2019-04-16T08:59:26.577Z,64.72
2019-04-16T09:00:26.626Z,66.06
2019-04-16T09:01:26.661Z,66.25
2019-04-16T09:02:27.322Z,66.35
2019-04-16T09:03:29.899Z,65.52
2019-04-16T09:04:26.787Z,65.14
2019-04-16T09:05:26.824Z,64.85
2019-04-16T09:06:26.867Z,64.75
2019-04-16T09:07:26.908Z,64.94
2019-04-16T09:08:26.949Z,64.28
2019-04-16T09:09:26.991Z,63.80
2019-04-16T09:10:29.954Z,63.03
2019-04-16T09:11:28.532Z,63.99
2019-04-16T09:12:27.154Z,63.99
2019-04-16T09:13:27.155Z,64.31
2019-04-16T09:14:27.206Z,64.31
2019-04-16T09:15:27.579Z,64.31
2019-04-16T09:16:27.281Z,64.22
2019-04-16T09:17:27.322Z,61.72
2019-04-16T09:18:27.367Z,61.54
2019-04-16T09:19:27.414Z,61.25
2019-04-16T09:20:27.449Z,61.72
2019-04-16T09:21:28.177Z,61.25
2019-04-16T09:22:27.533Z,61.25
2019-04-16T09:23:27.572Z,62.59
2019-04-16T09:24:27.616Z,63.16
2019-04-16T09:25:27.656Z,62.97
2019-04-16T09:26:27.696Z,62.40
2019-04-16T09:27:29.632Z,61.44
2019-04-16T09:28:31.176Z,60.23
2019-04-16T09:29:27.821Z,60.61
2019-04-16T09:30:27.867Z,60.71
2019-04-16T09:31:27.910Z,61.28
2019-04-16T09:32:28.537Z,62.90
2019-04-16T09:33:30.407Z,62.52
2019-04-16T09:34:28.036Z,62.62
2019-04-16T09:35:28.073Z,63.10
2019-04-16T09:36:28.115Z,63.86
2019-04-16T09:37:28.692Z,63.48
2019-04-16T09:38:28.200Z,62.90
2019-04-16T09:39:28.248Z,60.99
2019-04-16T09:40:28.284Z,60.04
2019-04-16T09:41:28.333Z,59.75
2019-04-16T09:42:28.469Z,59.56
2019-04-16T09:43:28.413Z,60.23
2019-04-16T09:44:31.042Z,59.56
2019-04-16T09:45:28.493Z,59.47
2019-04-16T09:46:49.834Z,59.84
2019-04-16T09:47:29.226Z,61.57
2019-04-16T09:48:28.645Z,61.60
2019-04-16T09:49:28.663Z,60.83
2019-04-16T09:50:28.706Z,60.74
2019-04-16T09:51:28.857Z,59.97
2019-04-16T09:52:28.796Z,60.45
2019-04-16T09:53:33.999Z,61.69
2019-04-16T09:54:28.877Z,60.74
2019-04-16T09:55:28.917Z,60.83
2019-04-16T09:56:29.852Z,60.74
2019-04-16T09:57:31.396Z,60.93
2019-04-16T09:58:29.051Z,60.83
2019-04-16T09:59:29.090Z,61.51
2019-04-16T10:00:29.127Z,60.35
2019-04-16T10:01:29.169Z,60.26
2019-04-16T10:02:29.217Z,61.51
2019-04-16T10:03:29.258Z,60.45
2019-04-16T10:04:29.298Z,60.06
2019-04-16T10:05:30.188Z,60.38
2019-04-16T10:06:29.383Z,60.67
2019-04-16T10:07:29.434Z,60.19
2019-04-16T10:08:29.659Z,59.72
2019-04-16T10:09:29.521Z,59.62
2019-04-16T10:10:29.555Z,60.10
2019-04-16T10:11:29.598Z,59.33
2019-04-16T10:12:29.644Z,58.47
2019-04-16T10:13:34.010Z,58.56
2019-04-16T10:14:29.749Z,58.66
2019-04-16T10:15:29.785Z,59.33
2019-04-16T10:16:29.812Z,60.00
2019-04-16T10:17:29.860Z,59.14
2019-04-16T10:18:34.724Z,61.25
2019-04-16T10:19:29.945Z,60.38
2019-04-16T10:20:29.980Z,60.10
2019-04-16T10:21:30.042Z,59.62
2019-04-16T10:22:30.087Z,58.66
2019-04-16T10:23:30.108Z,59.33
2019-04-16T10:24:30.154Z,59.62
2019-04-16T10:25:33.655Z,59.62
2019-04-16T10:26:30.264Z,60.58
2019-04-16T10:27:32.255Z,60.29
2019-04-16T10:28:30.331Z,59.45
2019-04-16T10:29:30.366Z,58.50
2019-04-16T10:30:30.442Z,57.61
2019-04-16T10:31:30.471Z,57.45
2019-04-16T10:32:30.492Z,57.54
2019-04-16T10:33:30.533Z,58.50
2019-04-16T10:34:30.578Z,58.50
2019-04-16T10:35:30.632Z,58.50
2019-04-16T10:36:30.663Z,58.12
2019-04-16T10:37:30.718Z,57.35
2019-04-16T10:38:30.778Z,58.79
2019-04-16T10:39:30.791Z,59.08
2019-04-16T10:40:30.835Z,59.36
2019-04-16T10:41:30.897Z,58.12
2019-04-16T10:42:30.949Z,56.49
2019-04-16T10:43:43.942Z,57.45
2019-04-16T10:44:31.021Z,56.49
2019-04-16T10:45:31.051Z,56.01
2019-04-16T10:46:31.102Z,56.20
2019-04-16T10:47:31.146Z,55.53
2019-04-16T10:48:31.204Z,55.56
2019-04-16T10:49:31.234Z,56.32
2019-04-16T10:50:31.269Z,57.57
2019-04-16T10:51:31.318Z,57.19
2019-04-16T10:52:31.351Z,55.56
2019-04-16T10:53:31.400Z,55.56
2019-04-16T10:54:33.765Z,55.27
2019-04-16T10:55:31.485Z,56.71
2019-04-16T10:56:31.536Z,55.65
2019-04-16T10:57:31.570Z,54.70
2019-04-16T10:58:31.618Z,55.36
2019-04-16T10:59:31.680Z,54.99
2019-04-16T11:00:31.706Z,55.46
2019-04-16T11:01:35.030Z,55.56
2019-04-16T11:02:31.822Z,55.01
2019-04-16T11:03:34.461Z,52.91
2019-04-16T11:04:31.894Z,52.23
2019-04-16T11:05:31.988Z,52.71
2019-04-16T11:06:32.006Z,52.91
2019-04-16T11:07:32.008Z,52.71
2019-04-16T11:08:32.045Z,53.00
2019-04-16T11:09:32.093Z,53.38
2019-04-16T11:10:32.137Z,52.81
2019-04-16T11:11:32.179Z,52.81
2019-04-16T11:12:32.220Z,52.62
2019-04-16T11:13:32.286Z,52.71
2019-04-16T11:14:32.328Z,53.00
2019-04-16T11:15:32.357Z,53.00
2019-04-16T11:16:35.830Z,53.28
2019-04-16T11:17:32.435Z,52.52
2019-04-16T11:18:32.504Z,52.42
2019-04-16T11:19:32.528Z,53.38
2019-04-16T11:20:32.638Z,54.34
2019-04-16T11:21:32.613Z,54.34
2019-04-16T11:22:32.653Z,53.86
2019-04-16T11:23:32.708Z,54.05
2019-04-16T11:24:32.748Z,53.58
2019-04-16T11:25:32.783Z,53.67
2019-04-16T11:26:32.826Z,53.96
2019-04-16T11:27:32.871Z,53.96
2019-04-16T11:28:32.940Z,53.58
2019-04-16T11:29:32.974Z,54.44
2019-04-16T11:30:33.017Z,54.15
2019-04-16T11:31:33.089Z,54.15
2019-04-16T11:32:33.122Z,52.91
2019-04-16T11:33:33.149Z,53.86
2019-04-16T11:34:33.180Z,53.58
2019-04-16T11:35:33.227Z,54.82
2019-04-16T11:36:33.265Z,54.53
2019-04-16T11:37:36.235Z,53.96
2019-04-16T11:38:33.354Z,53.77
2019-04-16T11:39:33.430Z,53.77
2019-04-16T11:40:33.458Z,53.86
2019-04-16T11:41:33.490Z,53.12
2019-04-16T11:42:33.531Z,52.71
2019-04-16T11:43:33.596Z,52.45
2019-04-16T11:44:33.612Z,52.64
2019-04-16T11:45:33.672Z,52.55
2019-04-16T11:46:33.699Z,51.68
2019-04-16T11:47:34.745Z,51.30
2019-04-16T11:48:37.162Z,51.20
2019-04-16T11:49:33.871Z,51.01
2019-04-16T11:50:35.972Z,51.87
2019-04-16T11:51:33.970Z,52.45
2019-04-16T11:52:33.990Z,53.60
2019-04-16T11:53:34.044Z,54.17
2019-04-16T11:54:34.055Z,53.70
2019-04-16T11:55:34.143Z,53.12
2019-04-16T11:56:34.138Z,53.79
2019-04-16T11:57:34.205Z,52.74
2019-04-16T11:58:34.244Z,53.22
2019-04-16T11:59:37.903Z,53.70
2019-04-16T12:00:34.318Z,53.12
2019-04-16T12:01:34.382Z,53.41
2019-04-16T12:02:34.403Z,53.72
2019-04-16T12:03:36.591Z,52.83
2019-04-16T12:04:34.525Z,52.55
2019-04-16T12:05:34.535Z,53.12
2019-04-16T12:06:34.578Z,53.31
2019-04-16T12:07:34.670Z,53.60
2019-04-16T12:08:34.709Z,53.41
2019-04-16T12:09:34.717Z,53.50
2019-04-16T12:10:34.803Z,53.05
2019-04-16T12:11:34.806Z,53.60
2019-04-16T12:12:34.886Z,53.22
2019-04-16T12:13:34.892Z,53.63
2019-04-16T12:14:35.180Z,53.63
2019-04-16T12:15:34.993Z,53.79
2019-04-16T12:16:35.036Z,53.31
2019-04-16T12:17:36.511Z,53.12
2019-04-16T12:18:35.112Z,53.89
2019-04-16T12:19:35.176Z,54.68
2019-04-16T12:20:35.211Z,54.49
2019-04-16T12:21:35.260Z,54.30
2019-04-16T12:22:35.288Z,53.53
2019-04-16T12:23:35.348Z,53.24
2019-04-16T12:24:35.403Z,52.74
2019-04-16T12:25:35.413Z,52.95
2019-04-16T12:26:35.467Z,53.05
2019-04-16T12:27:35.534Z,54.78
2019-04-16T12:28:35.547Z,54.39
2019-04-16T12:29:35.607Z,54.21
2019-04-16T12:30:35.659Z,52.76
2019-04-16T12:31:35.725Z,53.15
2019-04-16T12:32:35.722Z,53.05
2019-04-16T12:33:35.804Z,52.48
2019-04-16T12:34:35.808Z,53.15
2019-04-16T12:35:35.851Z,53.24
2019-04-16T12:36:35.944Z,52.95
2019-04-16T12:37:37.638Z,52.28
2019-04-16T12:38:36.086Z,51.71
2019-04-16T12:39:36.342Z,52.48
2019-04-16T12:40:36.073Z,51.14
2019-04-16T12:41:36.123Z,52.48
2019-04-16T12:42:41.245Z,52.76
2019-04-16T12:43:36.238Z,53.63
2019-04-16T12:44:45.110Z,53.44
2019-04-16T12:45:36.298Z,52.86
2019-04-16T12:46:36.347Z,52.38
2019-04-16T12:47:36.383Z,53.34
2019-04-16T12:48:36.448Z,53.24
2019-04-16T12:49:36.471Z,52.86
2019-04-16T12:50:36.517Z,53.05
2019-04-16T12:51:39.743Z,52.76
2019-04-16T12:52:36.663Z,52.76